Number Eight, Missouri
Current Conditions -  °F | °C
As of 1:02 PM on Sunday 23 Nov 2014 (Local Time) from KIRK Reporting Station
Light Rain Light Rain  
Wind Chill: 54°   Ceiling: 500
Heat Index: 54°   Visibility: 1.2mi
Dew Point: 54°   Wind: 7mph
Humidity: 100%   Direction: 190°S
Pressure: 29.4"   Gusts: NA
Location:  39.7769°N, 92.5616°W
Report Text: KIRK 231902Z AUTO 19006KT 1 1/4SM -RA BR OVC005 12/12 A2940 RMK AO2 P0001 T01220122
Loading
Personal Weather Stations






























Interactive Weather Map New forecast layout! Learn more

10-Day Weather Forecast

Advertisements
Track Severe Weather on mobile